sensor_id;sensor_type;location;lat;lon;timestamp;P1;durP1;ratioP1;P2;durP2;ratioP2
22752;SDS011;11543;43.144;24.684;2022-11-04T00:01:42;17.92;;;9.15;;
22752;SDS011;11543;43.144;24.684;2022-11-04T00:04:10;20.85;;;10.35;;
22752;SDS011;11543;43.144;24.684;2022-11-04T00:06:37;21.15;;;10.75;;
22752;SDS011;11543;43.144;24.684;2022-11-04T00:09:04;20.83;;;10.32;;
22752;SDS011;11543;43.144;24.684;2022-11-04T00:11:31;22.27;;;10.73;;
22752;SDS011;11543;43.144;24.684;2022-11-04T00:14:15;20.42;;;10.07;;
22752;SDS011;11543;43.144;24.684;2022-11-04T00:16:42;22.13;;;10.65;;
22752;SDS011;11543;43.144;24.684;2022-11-04T00:19:26;20.27;;;10.50;;
22752;SDS011;11543;43.144;24.684;2022-11-04T00:21:52;20.75;;;9.93;;
22752;SDS011;11543;43.144;24.684;2022-11-04T00:24:37;19.25;;;9.80;;
22752;SDS011;11543;43.144;24.684;2022-11-04T00:29:53;22.98;;;10.30;;
22752;SDS011;11543;43.144;24.684;2022-11-04T00:32:19;22.45;;;11.30;;
22752;SDS011;11543;43.144;24.684;2022-11-04T00:35:03;22.60;;;11.32;;
22752;SDS011;11543;43.144;24.684;2022-11-04T00:37:29;22.55;;;11.18;;
22752;SDS011;11543;43.144;24.684;2022-11-04T00:39:55;22.25;;;10.77;;
22752;SDS011;11543;43.144;24.684;2022-11-04T00:42:20;19.17;;;10.68;;
22752;SDS011;11543;43.144;24.684;2022-11-04T00:44:46;19.25;;;10.52;;
22752;SDS011;11543;43.144;24.684;2022-11-04T00:47:11;19.35;;;10.30;;
22752;SDS011;11543;43.144;24.684;2022-11-04T00:49:37;17.98;;;10.10;;
22752;SDS011;11543;43.144;24.684;2022-11-04T00:52:02;21.35;;;10.48;;
22752;SDS011;11543;43.144;24.684;2022-11-04T00:54:28;20.23;;;10.68;;
22752;SDS011;11543;43.144;24.684;2022-11-04T00:56:53;17.95;;;10.65;;
22752;SDS011;11543;43.144;24.684;2022-11-04T00:59:19;21.42;;;11.18;;
22752;SDS011;11543;43.144;24.684;2022-11-04T01:01:44;21.25;;;11.65;;
22752;SDS011;11543;43.144;24.684;2022-11-04T01:04:10;23.25;;;11.50;;
22752;SDS011;11543;43.144;24.684;2022-11-04T01:06:36;18.48;;;10.68;;
22752;SDS011;11543;43.144;24.684;2022-11-04T01:09:04;26.20;;;11.38;;
22752;SDS011;11543;43.144;24.684;2022-11-04T01:11:34;21.80;;;11.73;;
22752;SDS011;11543;43.144;24.684;2022-11-04T01:14:00;22.67;;;11.32;;
22752;SDS011;11543;43.144;24.684;2022-11-04T01:16:26;24.27;;;10.88;;
22752;SDS011;11543;43.144;24.684;2022-11-04T01:18:52;18.65;;;10.05;;
22752;SDS011;11543;43.144;24.684;2022-11-04T01:21:18;20.65;;;10.43;;
22752;SDS011;11543;43.144;24.684;2022-11-04T01:23:44;19.27;;;10.27;;
22752;SDS011;11543;43.144;24.684;2022-11-04T01:26:20;21.38;;;9.90;;
22752;SDS011;11543;43.144;24.684;2022-11-04T01:28:48;19.17;;;9.88;;
22752;SDS011;11543;43.144;24.684;2022-11-04T01:31:16;19.20;;;9.73;;
22752;SDS011;11543;43.144;24.684;2022-11-04T01:33:45;19.13;;;10.45;;
22752;SDS011;11543;43.144;24.684;2022-11-04T01:36:11;18.50;;;9.95;;
22752;SDS011;11543;43.144;24.684;2022-11-04T01:38:37;16.40;;;10.02;;
22752;SDS011;11543;43.144;24.684;2022-11-04T01:41:03;20.80;;;10.57;;
22752;SDS011;11543;43.144;24.684;2022-11-04T01:46:25;24.85;;;10.52;;
22752;SDS011;11543;43.144;24.684;2022-11-04T01:52:02;21.83;;;9.95;;
22752;SDS011;11543;43.144;24.684;2022-11-04T01:54:33;20.13;;;10.27;;
22752;SDS011;11543;43.144;24.684;2022-11-04T01:56:59;19.70;;;10.05;;
22752;SDS011;11543;43.144;24.684;2022-11-04T01:59:33;19.95;;;10.75;;
22752;SDS011;11543;43.144;24.684;2022-11-04T02:02:01;20.85;;;10.55;;
22752;SDS011;11543;43.144;24.684;2022-11-04T02:04:28;22.98;;;11.15;;
22752;SDS011;11543;43.144;24.684;2022-11-04T02:07:04;25.10;;;11.07;;
22752;SDS011;11543;43.144;24.684;2022-11-04T02:09:32;21.73;;;10.57;;
22752;SDS011;11543;43.144;24.684;2022-11-04T02:11:59;24.27;;;10.55;;
22752;SDS011;11543;43.144;24.684;2022-11-04T02:14:44;21.17;;;10.32;;
22752;SDS011;11543;43.144;24.684;2022-11-04T02:37:12;23.88;;;9.48;;
22752;SDS011;11543;43.144;24.684;2022-11-04T02:47:39;14.13;;;8.82;;
22752;SDS011;11543;43.144;24.684;2022-11-04T02:50:10;18.87;;;10.37;;
22752;SDS011;11543;43.144;24.684;2022-11-04T02:57:56;18.35;;;9.38;;
22752;SDS011;11543;43.144;24.684;2022-11-04T03:00:25;18.17;;;10.02;;
22752;SDS011;11543;43.144;24.684;2022-11-04T03:02:55;19.35;;;10.18;;
22752;SDS011;11543;43.144;24.684;2022-11-04T03:05:29;18.65;;;9.13;;
22752;SDS011;11543;43.144;24.684;2022-11-04T03:07:59;19.23;;;9.48;;
22752;SDS011;11543;43.144;24.684;2022-11-04T03:10:31;17.73;;;9.40;;
22752;SDS011;11543;43.144;24.684;2022-11-04T03:12:59;20.85;;;9.43;;
22752;SDS011;11543;43.144;24.684;2022-11-04T03:15:50;22.25;;;10.15;;
22752;SDS011;11543;43.144;24.684;2022-11-04T03:21:26;15.63;;;9.27;;
22752;SDS011;11543;43.144;24.684;2022-11-04T03:23:53;17.10;;;10.52;;
22752;SDS011;11543;43.144;24.684;2022-11-04T03:26:24;17.77;;;9.45;;
22752;SDS011;11543;43.144;24.684;2022-11-04T03:28:58;18.65;;;9.82;;
22752;SDS011;11543;43.144;24.684;2022-11-04T03:31:39;14.57;;;8.73;;
22752;SDS011;11543;43.144;24.684;2022-11-04T03:34:09;17.65;;;9.60;;
22752;SDS011;11543;43.144;24.684;2022-11-04T03:36:35;17.55;;;9.85;;
22752;SDS011;11543;43.144;24.684;2022-11-04T03:39:00;20.55;;;10.27;;
22752;SDS011;11543;43.144;24.684;2022-11-04T03:41:28;18.90;;;9.80;;
22752;SDS011;11543;43.144;24.684;2022-11-04T03:43:55;18.65;;;9.40;;
22752;SDS011;11543;43.144;24.684;2022-11-04T03:46:21;18.98;;;9.43;;
22752;SDS011;11543;43.144;24.684;2022-11-04T03:48:47;17.00;;;9.25;;
22752;SDS011;11543;43.144;24.684;2022-11-04T03:51:15;16.23;;;9.15;;
22752;SDS011;11543;43.144;24.684;2022-11-04T03:53:40;19.55;;;9.00;;
22752;SDS011;11543;43.144;24.684;2022-11-04T04:07:39;14.77;;;8.13;;
22752;SDS011;11543;43.144;24.684;2022-11-04T04:13:00;15.18;;;8.48;;
22752;SDS011;11543;43.144;24.684;2022-11-04T04:15:32;16.35;;;8.50;;
22752;SDS011;11543;43.144;24.684;2022-11-04T04:18:12;16.67;;;9.25;;
22752;SDS011;11543;43.144;24.684;2022-11-04T04:20:42;18.85;;;8.52;;
22752;SDS011;11543;43.144;24.684;2022-11-04T04:23:19;18.58;;;8.70;;
22752;SDS011;11543;43.144;24.684;2022-11-04T04:26:07;18.27;;;9.02;;
22752;SDS011;11543;43.144;24.684;2022-11-04T04:28:53;17.35;;;8.52;;
22752;SDS011;11543;43.144;24.684;2022-11-04T04:31:21;16.75;;;8.82;;
22752;SDS011;11543;43.144;24.684;2022-11-04T04:34:08;17.30;;;8.75;;
22752;SDS011;11543;43.144;24.684;2022-11-04T04:36:36;19.48;;;9.48;;
22752;SDS011;11543;43.144;24.684;2022-11-04T04:39:08;17.33;;;8.75;;
22752;SDS011;11543;43.144;24.684;2022-11-04T04:41:53;21.15;;;8.52;;
22752;SDS011;11543;43.144;24.684;2022-11-04T04:44:38;16.42;;;8.15;;
22752;SDS011;11543;43.144;24.684;2022-11-04T04:47:25;17.60;;;8.73;;
22752;SDS011;11543;43.144;24.684;2022-11-04T04:49:56;15.95;;;8.63;;
22752;SDS011;11543;43.144;24.684;2022-11-04T04:52:24;15.20;;;8.40;;
22752;SDS011;11543;43.144;24.684;2022-11-04T04:54:51;20.42;;;8.60;;
22752;SDS011;11543;43.144;24.684;2022-11-04T04:57:17;16.63;;;8.85;;
22752;SDS011;11543;43.144;24.684;2022-11-04T04:59:42;18.77;;;8.63;;
22752;SDS011;11543;43.144;24.684;2022-11-04T05:02:08;14.57;;;8.57;;
22752;SDS011;11543;43.144;24.684;2022-11-04T05:04:33;18.00;;;8.85;;
22752;SDS011;11543;43.144;24.684;2022-11-04T05:06:59;16.25;;;8.65;;
22752;SDS011;11543;43.144;24.684;2022-11-04T05:09:24;18.02;;;8.63;;
22752;SDS011;11543;43.144;24.684;2022-11-04T05:11:50;19.67;;;8.68;;
22752;SDS011;11543;43.144;24.684;2022-11-04T05:14:15;16.55;;;9.18;;
22752;SDS011;11543;43.144;24.684;2022-11-04T05:16:41;18.40;;;8.10;;
22752;SDS011;11543;43.144;24.684;2022-11-04T05:19:06;19.10;;;8.73;;
22752;SDS011;11543;43.144;24.684;2022-11-04T05:21:32;16.83;;;9.30;;
22752;SDS011;11543;43.144;24.684;2022-11-04T05:23:58;17.40;;;9.63;;
22752;SDS011;11543;43.144;24.684;2022-11-04T05:26:23;18.38;;;9.95;;
22752;SDS011;11543;43.144;24.684;2022-11-04T05:28:49;21.10;;;9.95;;
22752;SDS011;11543;43.144;24.684;2022-11-04T05:31:15;22.90;;;10.75;;
22752;SDS011;11543;43.144;24.684;2022-11-04T05:33:40;20.08;;;10.52;;
22752;SDS011;11543;43.144;24.684;2022-11-04T05:38:32;22.00;;;11.35;;
22752;SDS011;11543;43.144;24.684;2022-11-04T05:40:58;19.08;;;10.77;;
22752;SDS011;11543;43.144;24.684;2022-11-04T05:43:23;23.85;;;11.13;;
22752;SDS011;11543;43.144;24.684;2022-11-04T05:45:49;26.25;;;11.05;;
22752;SDS011;11543;43.144;24.684;2022-11-04T05:48:15;32.22;;;11.35;;
22752;SDS011;11543;43.144;24.684;2022-11-04T05:50:41;28.77;;;10.82;;
22752;SDS011;11543;43.144;24.684;2022-11-04T05:53:06;26.20;;;11.15;;
22752;SDS011;11543;43.144;24.684;2022-11-04T05:55:32;22.20;;;10.60;;
22752;SDS011;11543;43.144;24.684;2022-11-04T05:57:58;23.65;;;10.55;;
22752;SDS011;11543;43.144;24.684;2022-11-04T06:00:24;30.25;;;10.77;;
22752;SDS011;11543;43.144;24.684;2022-11-04T06:02:51;23.85;;;10.00;;
22752;SDS011;11543;43.144;24.684;2022-11-04T06:05:18;32.13;;;10.88;;
22752;SDS011;11543;43.144;24.684;2022-11-04T06:07:43;24.67;;;10.63;;
22752;SDS011;11543;43.144;24.684;2022-11-04T06:10:09;20.63;;;10.77;;
22752;SDS011;11543;43.144;24.684;2022-11-04T06:12:35;18.48;;;10.35;;
22752;SDS011;11543;43.144;24.684;2022-11-04T06:15:00;21.85;;;9.90;;
22752;SDS011;11543;43.144;24.684;2022-11-04T06:17:27;21.38;;;10.63;;
22752;SDS011;11543;43.144;24.684;2022-11-04T06:19:53;25.27;;;10.68;;
22752;SDS011;11543;43.144;24.684;2022-11-04T06:22:18;18.80;;;10.43;;
22752;SDS011;11543;43.144;24.684;2022-11-04T06:24:44;24.83;;;10.45;;
22752;SDS011;11543;43.144;24.684;2022-11-04T06:27:10;20.48;;;10.48;;
22752;SDS011;11543;43.144;24.684;2022-11-04T06:29:36;21.83;;;10.23;;
22752;SDS011;11543;43.144;24.684;2022-11-04T06:32:06;17.30;;;9.77;;
22752;SDS011;11543;43.144;24.684;2022-11-04T06:34:32;21.90;;;9.68;;
22752;SDS011;11543;43.144;24.684;2022-11-04T06:36:57;22.65;;;9.35;;
22752;SDS011;11543;43.144;24.684;2022-11-04T06:39:23;21.73;;;10.00;;
22752;SDS011;11543;43.144;24.684;2022-11-04T06:41:49;17.60;;;9.35;;
22752;SDS011;11543;43.144;24.684;2022-11-04T06:44:14;16.42;;;9.60;;
22752;SDS011;11543;43.144;24.684;2022-11-04T06:46:40;23.08;;;9.82;;
22752;SDS011;11543;43.144;24.684;2022-11-04T06:49:17;19.80;;;9.52;;
22752;SDS011;11543;43.144;24.684;2022-11-04T06:51:44;19.65;;;9.13;;
22752;SDS011;11543;43.144;24.684;2022-11-04T06:54:10;17.70;;;9.57;;
22752;SDS011;11543;43.144;24.684;2022-11-04T06:56:36;19.67;;;9.63;;
22752;SDS011;11543;43.144;24.684;2022-11-04T06:59:02;25.70;;;10.43;;
22752;SDS011;11543;43.144;24.684;2022-11-04T07:01:29;19.02;;;10.52;;
22752;SDS011;11543;43.144;24.684;2022-11-04T07:03:58;24.55;;;11.13;;
22752;SDS011;11543;43.144;24.684;2022-11-04T07:06:26;22.27;;;11.10;;
22752;SDS011;11543;43.144;24.684;2022-11-04T07:08:59;24.67;;;10.75;;
22752;SDS011;11543;43.144;24.684;2022-11-04T07:11:27;24.42;;;10.55;;
22752;SDS011;11543;43.144;24.684;2022-11-04T07:13:54;23.45;;;10.90;;
22752;SDS011;11543;43.144;24.684;2022-11-04T07:16:19;23.50;;;10.95;;
22752;SDS011;11543;43.144;24.684;2022-11-04T07:18:46;24.60;;;10.50;;
22752;SDS011;11543;43.144;24.684;2022-11-04T07:21:13;26.92;;;10.80;;
22752;SDS011;11543;43.144;24.684;2022-11-04T07:23:39;23.88;;;10.45;;
22752;SDS011;11543;43.144;24.684;2022-11-04T07:26:07;32.35;;;9.77;;
22752;SDS011;11543;43.144;24.684;2022-11-04T07:28:35;24.05;;;9.93;;
22752;SDS011;11543;43.144;24.684;2022-11-04T07:31:01;28.77;;;10.77;;
22752;SDS011;11543;43.144;24.684;2022-11-04T07:33:28;29.67;;;10.05;;
22752;SDS011;11543;43.144;24.684;2022-11-04T07:35:54;29.52;;;10.15;;
22752;SDS011;11543;43.144;24.684;2022-11-04T07:38:20;25.52;;;9.95;;
22752;SDS011;11543;43.144;24.684;2022-11-04T07:40:46;20.60;;;9.25;;
22752;SDS011;11543;43.144;24.684;2022-11-04T07:43:12;23.20;;;8.77;;
22752;SDS011;11543;43.144;24.684;2022-11-04T07:45:38;23.48;;;9.10;;
22752;SDS011;11543;43.144;24.684;2022-11-04T07:48:03;25.77;;;9.05;;
22752;SDS011;11543;43.144;24.684;2022-11-04T07:50:29;22.40;;;9.30;;
22752;SDS011;11543;43.144;24.684;2022-11-04T07:52:54;22.25;;;9.05;;
22752;SDS011;11543;43.144;24.684;2022-11-04T07:55:20;27.88;;;9.57;;
22752;SDS011;11543;43.144;24.684;2022-11-04T07:57:45;29.67;;;9.20;;
22752;SDS011;11543;43.144;24.684;2022-11-04T08:00:12;26.42;;;8.98;;
22752;SDS011;11543;43.144;24.684;2022-11-04T08:02:39;21.35;;;9.35;;
22752;SDS011;11543;43.144;24.684;2022-11-04T08:05:06;22.42;;;9.48;;
22752;SDS011;11543;43.144;24.684;2022-11-04T08:07:32;22.00;;;9.07;;
22752;SDS011;11543;43.144;24.684;2022-11-04T08:09:57;27.45;;;8.98;;
22752;SDS011;11543;43.144;24.684;2022-11-04T08:12:23;20.13;;;8.05;;
22752;SDS011;11543;43.144;24.684;2022-11-04T08:14:49;16.45;;;7.93;;
22752;SDS011;11543;43.144;24.684;2022-11-04T08:17:15;18.80;;;8.40;;
22752;SDS011;11543;43.144;24.684;2022-11-04T08:19:41;19.85;;;8.00;;
22752;SDS011;11543;43.144;24.684;2022-11-04T08:22:06;19.38;;;7.53;;
22752;SDS011;11543;43.144;24.684;2022-11-04T08:24:32;21.67;;;8.10;;
22752;SDS011;11543;43.144;24.684;2022-11-04T08:26:59;15.20;;;7.10;;
22752;SDS011;11543;43.144;24.684;2022-11-04T08:29:24;19.27;;;7.50;;
22752;SDS011;11543;43.144;24.684;2022-11-04T08:31:49;18.45;;;7.75;;
22752;SDS011;11543;43.144;24.684;2022-11-04T08:34:15;16.27;;;6.93;;
22752;SDS011;11543;43.144;24.684;2022-11-04T08:36:42;14.73;;;7.15;;
22752;SDS011;11543;43.144;24.684;2022-11-04T08:39:09;16.55;;;8.07;;
22752;SDS011;11543;43.144;24.684;2022-11-04T08:41:35;16.92;;;8.43;;
22752;SDS011;11543;43.144;24.684;2022-11-04T08:44:03;19.48;;;7.78;;
22752;SDS011;11543;43.144;24.684;2022-11-04T08:46:31;25.15;;;8.40;;
22752;SDS011;11543;43.144;24.684;2022-11-04T08:48:59;18.48;;;7.60;;
22752;SDS011;11543;43.144;24.684;2022-11-04T08:51:25;15.57;;;7.35;;
22752;SDS011;11543;43.144;24.684;2022-11-04T08:53:51;16.92;;;7.88;;
22752;SDS011;11543;43.144;24.684;2022-11-04T08:56:18;20.20;;;7.65;;
22752;SDS011;11543;43.144;24.684;2022-11-04T08:58:46;16.13;;;7.32;;
22752;SDS011;11543;43.144;24.684;2022-11-04T09:01:12;20.08;;;7.85;;
22752;SDS011;11543;43.144;24.684;2022-11-04T09:03:39;16.23;;;7.40;;
22752;SDS011;11543;43.144;24.684;2022-11-04T09:06:09;13.50;;;6.97;;
22752;SDS011;11543;43.144;24.684;2022-11-04T09:08:38;21.15;;;7.28;;
22752;SDS011;11543;43.144;24.684;2022-11-04T09:11:08;18.75;;;7.28;;
22752;SDS011;11543;43.144;24.684;2022-11-04T09:13:35;20.73;;;7.90;;
22752;SDS011;11543;43.144;24.684;2022-11-04T09:16:01;20.67;;;8.32;;
22752;SDS011;11543;43.144;24.684;2022-11-04T09:18:27;22.20;;;9.23;;
22752;SDS011;11543;43.144;24.684;2022-11-04T09:20:53;26.65;;;9.43;;
22752;SDS011;11543;43.144;24.684;2022-11-04T09:23:19;25.15;;;9.75;;
22752;SDS011;11543;43.144;24.684;2022-11-04T09:25:44;21.88;;;8.82;;
22752;SDS011;11543;43.144;24.684;2022-11-04T09:28:10;22.48;;;8.60;;
22752;SDS011;11543;43.144;24.684;2022-11-04T09:30:35;19.45;;;8.63;;
22752;SDS011;11543;43.144;24.684;2022-11-04T09:33:01;22.70;;;9.23;;
22752;SDS011;11543;43.144;24.684;2022-11-04T09:35:28;21.85;;;7.93;;
22752;SDS011;11543;43.144;24.684;2022-11-04T09:37:54;23.88;;;7.97;;
22752;SDS011;11543;43.144;24.684;2022-11-04T09:40:21;25.63;;;7.82;;
22752;SDS011;11543;43.144;24.684;2022-11-04T09:45:37;21.77;;;7.97;;
22752;SDS011;11543;43.144;24.684;2022-11-04T09:48:07;19.67;;;7.00;;
22752;SDS011;11543;43.144;24.684;2022-11-04T09:50:45;35.83;;;8.07;;
22752;SDS011;11543;43.144;24.684;2022-11-04T09:53:16;23.05;;;7.38;;
22752;SDS011;11543;43.144;24.684;2022-11-04T09:55:58;29.35;;;7.75;;
22752;SDS011;11543;43.144;24.684;2022-11-04T09:58:32;17.65;;;7.13;;
22752;SDS011;11543;43.144;24.684;2022-11-04T10:01:02;21.60;;;7.22;;
22752;SDS011;11543;43.144;24.684;2022-11-04T10:06:40;18.50;;;7.30;;
22752;SDS011;11543;43.144;24.684;2022-11-04T10:20:39;18.85;;;6.80;;
22752;SDS011;11543;43.144;24.684;2022-11-04T10:26:18;18.88;;;6.20;;
22752;SDS011;11543;43.144;24.684;2022-11-04T10:28:51;15.02;;;5.93;;
22752;SDS011;11543;43.144;24.684;2022-11-04T10:31:22;13.82;;;6.07;;
22752;SDS011;11543;43.144;24.684;2022-11-04T10:36:26;13.00;;;5.63;;
22752;SDS011;11543;43.144;24.684;2022-11-04T10:38:53;14.20;;;5.97;;
22752;SDS011;11543;43.144;24.684;2022-11-04T10:43:53;13.57;;;6.25;;
22752;SDS011;11543;43.144;24.684;2022-11-04T10:46:42;17.10;;;6.88;;
22752;SDS011;11543;43.144;24.684;2022-11-04T10:49:37;21.77;;;7.25;;
22752;SDS011;11543;43.144;24.684;2022-11-04T10:52:24;21.27;;;6.85;;
22752;SDS011;11543;43.144;24.684;2022-11-04T10:54:49;16.48;;;6.30;;
22752;SDS011;11543;43.144;24.684;2022-11-04T10:57:19;14.90;;;6.20;;
22752;SDS011;11543;43.144;24.684;2022-11-04T11:07:46;18.33;;;6.60;;
22752;SDS011;11543;43.144;24.684;2022-11-04T11:10:19;16.48;;;6.78;;
22752;SDS011;11543;43.144;24.684;2022-11-04T11:12:50;16.42;;;6.78;;
22752;SDS011;11543;43.144;24.684;2022-11-04T11:20:30;13.98;;;6.28;;
22752;SDS011;11543;43.144;24.684;2022-11-04T11:22:57;18.30;;;6.53;;
22752;SDS011;11543;43.144;24.684;2022-11-04T11:28:01;17.38;;;6.82;;
22752;SDS011;11543;43.144;24.684;2022-11-04T11:32:57;15.07;;;7.03;;
22752;SDS011;11543;43.144;24.684;2022-11-04T11:35:34;14.88;;;7.18;;
22752;SDS011;11543;43.144;24.684;2022-11-04T11:38:13;16.70;;;6.35;;
22752;SDS011;11543;43.144;24.684;2022-11-04T11:40:43;18.20;;;7.70;;
22752;SDS011;11543;43.144;24.684;2022-11-04T11:43:22;15.43;;;7.32;;
22752;SDS011;11543;43.144;24.684;2022-11-04T11:45:52;34.95;;;7.90;;
22752;SDS011;11543;43.144;24.684;2022-11-04T11:51:02;19.00;;;7.78;;
22752;SDS011;11543;43.144;24.684;2022-11-04T11:53:28;15.73;;;7.72;;
22752;SDS011;11543;43.144;24.684;2022-11-04T11:58:27;15.18;;;7.50;;
22752;SDS011;11543;43.144;24.684;2022-11-04T12:01:00;16.83;;;7.18;;
22752;SDS011;11543;43.144;24.684;2022-11-04T12:03:43;18.75;;;7.00;;
22752;SDS011;11543;43.144;24.684;2022-11-04T12:09:28;12.90;;;6.50;;
22752;SDS011;11543;43.144;24.684;2022-11-04T12:15:13;19.45;;;7.70;;
22752;SDS011;11543;43.144;24.684;2022-11-04T12:23:28;22.65;;;14.18;;
22752;SDS011;11543;43.144;24.684;2022-11-04T12:48:22;33.35;;;15.77;;
22752;SDS011;11543;43.144;24.684;2022-11-04T12:50:58;27.35;;;14.45;;
22752;SDS011;11543;43.144;24.684;2022-11-04T12:56:22;27.17;;;14.00;;
22752;SDS011;11543;43.144;24.684;2022-11-04T12:59:24;24.20;;;14.23;;
22752;SDS011;11543;43.144;24.684;2022-11-04T13:02:21;27.13;;;15.32;;
22752;SDS011;11543;43.144;24.684;2022-11-04T13:04:47;31.40;;;15.68;;
22752;SDS011;11543;43.144;24.684;2022-11-04T13:07:23;29.92;;;17.38;;
22752;SDS011;11543;43.144;24.684;2022-11-04T13:10:17;30.20;;;15.55;;
22752;SDS011;11543;43.144;24.684;2022-11-04T13:12:47;25.45;;;15.00;;
22752;SDS011;11543;43.144;24.684;2022-11-04T13:15:17;26.73;;;14.50;;
22752;SDS011;11543;43.144;24.684;2022-11-04T13:17:49;24.38;;;13.73;;
22752;SDS011;11543;43.144;24.684;2022-11-04T13:23:12;25.15;;;11.80;;
22752;SDS011;11543;43.144;24.684;2022-11-04T13:25:45;19.38;;;11.77;;
22752;SDS011;11543;43.144;24.684;2022-11-04T13:28:15;26.20;;;11.05;;
22752;SDS011;11543;43.144;24.684;2022-11-04T13:42:18;20.95;;;10.57;;
22752;SDS011;11543;43.144;24.684;2022-11-04T13:44:52;24.05;;;11.00;;
22752;SDS011;11543;43.144;24.684;2022-11-04T13:47:34;24.70;;;11.77;;
22752;SDS011;11543;43.144;24.684;2022-11-04T13:50:02;25.90;;;11.60;;
22752;SDS011;11543;43.144;24.684;2022-11-04T13:52:29;23.58;;;11.13;;
22752;SDS011;11543;43.144;24.684;2022-11-04T13:54:57;22.45;;;11.43;;
22752;SDS011;11543;43.144;24.684;2022-11-04T13:57:48;23.52;;;11.55;;
22752;SDS011;11543;43.144;24.684;2022-11-04T14:00:31;26.77;;;11.02;;
22752;SDS011;11543;43.144;24.684;2022-11-04T14:16:05;23.48;;;10.48;;
22752;SDS011;11543;43.144;24.684;2022-11-04T14:18:56;25.70;;;10.75;;
22752;SDS011;11543;43.144;24.684;2022-11-04T14:21:22;24.92;;;11.57;;
22752;SDS011;11543;43.144;24.684;2022-11-04T14:24:00;27.05;;;11.15;;
22752;SDS011;11543;43.144;24.684;2022-11-04T14:26:41;26.33;;;10.70;;
22752;SDS011;11543;43.144;24.684;2022-11-04T14:29:14;21.48;;;10.00;;
22752;SDS011;11543;43.144;24.684;2022-11-04T14:32:05;18.83;;;9.30;;
22752;SDS011;11543;43.144;24.684;2022-11-04T14:37:20;18.92;;;8.52;;
22752;SDS011;11543;43.144;24.684;2022-11-04T14:39:52;18.48;;;8.65;;
22752;SDS011;11543;43.144;24.684;2022-11-04T14:42:48;17.42;;;8.27;;
22752;SDS011;11543;43.144;24.684;2022-11-04T14:45:19;17.25;;;7.95;;
22752;SDS011;11543;43.144;24.684;2022-11-04T14:47:55;17.55;;;8.65;;
22752;SDS011;11543;43.144;24.684;2022-11-04T14:50:31;17.30;;;8.27;;
22752;SDS011;11543;43.144;24.684;2022-11-04T14:52:57;74.93;;;28.45;;
22752;SDS011;11543;43.144;24.684;2022-11-04T14:55:28;70.05;;;25.80;;
22752;SDS011;11543;43.144;24.684;2022-11-04T14:57:58;39.15;;;15.50;;
22752;SDS011;11543;43.144;24.684;2022-11-04T15:03:14;42.63;;;17.48;;
22752;SDS011;11543;43.144;24.684;2022-11-04T15:05:44;45.83;;;19.20;;
22752;SDS011;11543;43.144;24.684;2022-11-04T15:13:35;37.03;;;16.23;;
22752;SDS011;11543;43.144;24.684;2022-11-04T15:16:04;36.20;;;13.88;;
22752;SDS011;11543;43.144;24.684;2022-11-04T15:18:35;31.13;;;14.43;;
22752;SDS011;11543;43.144;24.684;2022-11-04T15:21:04;31.83;;;14.43;;
22752;SDS011;11543;43.144;24.684;2022-11-04T15:23:38;35.55;;;17.85;;
22752;SDS011;11543;43.144;24.684;2022-11-04T15:26:25;36.80;;;17.50;;
22752;SDS011;11543;43.144;24.684;2022-11-04T15:28:53;29.63;;;16.25;;
22752;SDS011;11543;43.144;24.684;2022-11-04T15:31:20;24.90;;;15.07;;
22752;SDS011;11543;43.144;24.684;2022-11-04T15:33:54;45.53;;;22.30;;
22752;SDS011;11543;43.144;24.684;2022-11-04T15:36:22;42.88;;;22.27;;
22752;SDS011;11543;43.144;24.684;2022-11-04T15:39:02;34.83;;;19.08;;
22752;SDS011;11543;43.144;24.684;2022-11-04T15:41:31;36.03;;;19.23;;
22752;SDS011;11543;43.144;24.684;2022-11-04T15:44:21;54.47;;;27.98;;
22752;SDS011;11543;43.144;24.684;2022-11-04T15:46:54;44.65;;;24.33;;
22752;SDS011;11543;43.144;24.684;2022-11-04T15:51:51;44.88;;;25.73;;
22752;SDS011;11543;43.144;24.684;2022-11-04T15:54:21;38.45;;;21.60;;
22752;SDS011;11543;43.144;24.684;2022-11-04T15:56:54;38.42;;;20.52;;
22752;SDS011;11543;43.144;24.684;2022-11-04T15:59:29;41.97;;;23.80;;
22752;SDS011;11543;43.144;24.684;2022-11-04T16:01:56;36.08;;;21.02;;
22752;SDS011;11543;43.144;24.684;2022-11-04T16:04:25;21.75;;;11.93;;
22752;SDS011;11543;43.144;24.684;2022-11-04T16:12:56;27.05;;;14.18;;
22752;SDS011;11543;43.144;24.684;2022-11-04T16:15:28;29.50;;;16.27;;
22752;SDS011;11543;43.144;24.684;2022-11-04T16:18:02;31.67;;;16.42;;
22752;SDS011;11543;43.144;24.684;2022-11-04T16:20:29;31.55;;;17.95;;
22752;SDS011;11543;43.144;24.684;2022-11-04T16:22:56;31.38;;;14.43;;
22752;SDS011;11543;43.144;24.684;2022-11-04T16:25:24;27.48;;;11.10;;
22752;SDS011;11543;43.144;24.684;2022-11-04T16:27:58;19.02;;;9.43;;
22752;SDS011;11543;43.144;24.684;2022-11-04T16:30:24;20.30;;;10.95;;
22752;SDS011;11543;43.144;24.684;2022-11-04T16:32:51;23.48;;;10.75;;
22752;SDS011;11543;43.144;24.684;2022-11-04T16:35:22;21.60;;;11.32;;
22752;SDS011;11543;43.144;24.684;2022-11-04T16:37:50;21.02;;;9.48;;
22752;SDS011;11543;43.144;24.684;2022-11-04T16:40:17;21.08;;;10.10;;
22752;SDS011;11543;43.144;24.684;2022-11-04T16:42:44;23.58;;;10.18;;
22752;SDS011;11543;43.144;24.684;2022-11-04T16:47:54;24.05;;;9.82;;
22752;SDS011;11543;43.144;24.684;2022-11-04T16:50:23;21.92;;;11.25;;
22752;SDS011;11543;43.144;24.684;2022-11-04T16:52:49;24.20;;;11.40;;
22752;SDS011;11543;43.144;24.684;2022-11-04T16:55:15;24.77;;;10.25;;
22752;SDS011;11543;43.144;24.684;2022-11-04T16:57:42;20.30;;;10.43;;
22752;SDS011;11543;43.144;24.684;2022-11-04T17:00:18;19.98;;;9.90;;
22752;SDS011;11543;43.144;24.684;2022-11-04T17:02:45;21.42;;;10.30;;
22752;SDS011;11543;43.144;24.684;2022-11-04T17:05:11;19.45;;;11.00;;
22752;SDS011;11543;43.144;24.684;2022-11-04T17:07:38;25.98;;;12.40;;
22752;SDS011;11543;43.144;24.684;2022-11-04T17:10:04;28.80;;;15.48;;
22752;SDS011;11543;43.144;24.684;2022-11-04T17:12:57;35.33;;;15.50;;
22752;SDS011;11543;43.144;24.684;2022-11-04T17:15:22;31.02;;;17.20;;
22752;SDS011;11543;43.144;24.684;2022-11-04T17:17:48;27.30;;;15.68;;
22752;SDS011;11543;43.144;24.684;2022-11-04T17:20:14;30.27;;;14.50;;
22752;SDS011;11543;43.144;24.684;2022-11-04T17:22:41;136.55;;;70.80;;
22752;SDS011;11543;43.144;24.684;2022-11-04T17:25:21;188.20;;;101.75;;
22752;SDS011;11543;43.144;24.684;2022-11-04T17:27:48;97.15;;;60.17;;
22752;SDS011;11543;43.144;24.684;2022-11-04T17:30:14;66.90;;;42.22;;
22752;SDS011;11543;43.144;24.684;2022-11-04T17:32:41;65.50;;;37.50;;
22752;SDS011;11543;43.144;24.684;2022-11-04T17:35:07;64.10;;;37.35;;
22752;SDS011;11543;43.144;24.684;2022-11-04T17:37:33;56.25;;;32.35;;
22752;SDS011;11543;43.144;24.684;2022-11-04T17:39:59;55.13;;;27.63;;
22752;SDS011;11543;43.144;24.684;2022-11-04T17:42:24;47.58;;;24.13;;
22752;SDS011;11543;43.144;24.684;2022-11-04T17:45:08;45.80;;;24.17;;
22752;SDS011;11543;43.144;24.684;2022-11-04T17:47:34;50.28;;;24.50;;
22752;SDS011;11543;43.144;24.684;2022-11-04T17:50:00;38.53;;;21.17;;